Denver, Colorado
Traffic Map
Current Weather Conditions
Denver, Colorado
Broken Clouds
Broken Clouds
46°
Feels Like: 44°
Wind Chill: 44° Ceiling: 14000
Heat Index: 46° Visibility: 10mi
Dew Point: 21° Wind: 6mph
Humidity: 36% Direction: 270° (W)
Pressure: 29.89in Gusts: 0mph
Raw Report DataKBKF 142258Z 27005KT 10SM FEW080 BKN140 08/M06 A2989 RMK AO2A SLP116 T00801063
Traffic Incident Summary
Active as of:
Severity:
Category:
InformationThere was an issue retrieving the traffic information for this location. Please try a different location or try again shortly.
Advertisements
Track Severe Weather on mobile